Delta Cathryn — WDE9621 — position and weather

sailwx.info

Track history (hours):
 
Tides and Currents Weather Stations Pressure Air Temp Water Temp Dewpoint Dewpoint Depression Visibility Wind Speed Wind Dir Waves Ship Positions

Delta Cathryn

Owner: BAYDELTA MARITIME, SAN FRANCISCO, CA. More information available from US FCC via Universal Licensing System and Coast Guard Vessel Documentation Center.

Last reported at 2018-Jun-19 11:49 UTC. Time now 2018-Jun-19 12:39 UTC.
Position N 38°02' W 122°08'.

Length 30 m.

Type: Other ship. MMSI: 367419340.

Date/timePositionNaut miles runAvg speedWind from/ knotsBaromVisibWave heightAir tempDewpointWater temp
2018-Jun-19 11:49N 38°02' W 122°08'3 3.1
2018-Jun-19 10:53N 38°03' W 122°11'610.8
2018-Jun-19 10:22N 38°03' W 122°18'611.7
2018-Jun-19 09:50N 38°00' W 122°25'511.7
2018-Jun-19 09:27N 37°56' W 122°27'510.9
2018-Jun-19 09:00N 37°51' W 122°25'510.0
2018-Jun-19 08:28N 37°47' W 122°21'1 3.0
2018-Jun-19 08:00N 37°45' W 122°20'0 0.9
2018-Jun-19 07:30N 37°46' W 122°21'3 6.6
2018-Jun-19 07:00N 37°48' W 122°24'0 0.0
2018-Jun-19 06:30N 37°48' W 122°24'0 0.0
2018-Jun-19 06:00N 37°48' W 122°24'0 0.0
2018-Jun-19 05:30N 37°48' W 122°24'0 0.0
2018-Jun-19 05:00N 37°48' W 122°24'0 0.0
2018-Jun-19 04:30N 37°48' W 122°24'0 0.0
2018-Jun-19 04:00N 37°48' W 122°24'0 0.0
2018-Jun-19 03:30N 37°48' W 122°24'0 0.0
2018-Jun-19 03:00N 37°48' W 122°24'0 0.0
2018-Jun-19 02:30N 37°48' W 122°24'0 0.0
2018-Jun-19 01:59N 37°48' W 122°24'4 9.1
2018-Jun-19 01:31N 37°44' W 122°21'0 0.6
2018-Jun-19 01:00N 37°44' W 122°21'3 4.9
2018-Jun-19 00:30N 37°46' W 122°22'510.2
2018-Jun-19 00:00N 37°51' W 122°24'510.2
2018-Jun-18 23:30N 37°56' W 122°27'4 8.9
2018-Jun-18 22:59N 38°00' W 122°25'5 8.8
2018-Jun-18 22:23N 38°03' W 122°19'4 8.7
2018-Jun-18 21:53N 38°04' W 122°14'5 0.4
2018-Jun-18 09:02N 38°02' W 122°08'0 6.4
2018-Jun-18 08:59N 38°02' W 122°08'4 0.4
2018-Jun-17 21:48N 38°04' W 122°13'410.7
2018-Jun-17 21:26N 38°03' W 122°18'510.7
2018-Jun-17 20:58N 38°01' W 122°24'511.2
2018-Jun-17 20:30N 37°56' W 122°26'510.9
2018-Jun-17 20:00N 37°51' W 122°24'2 4.8
2018-Jun-17 19:30N 37°48' W 122°24'0 0.0
2018-Jun-17 19:00N 37°48' W 122°24'0 0.0
2018-Jun-17 18:30N 37°48' W 122°24'0 0.0
2018-Jun-17 18:00N 37°48' W 122°24'0 0.0
2018-Jun-17 17:30N 37°48' W 122°24'0 0.0
2018-Jun-17 17:00N 37°48' W 122°24'3 5.3
2018-Jun-17 16:30N 37°48' W 122°21'0 0.7
2018-Jun-17 16:00N 37°48' W 122°20'1 1.6
2018-Jun-17 15:30N 37°49' W 122°20'2 3.3
2018-Jun-17 15:00N 37°48' W 122°21'1 2.4
2018-Jun-17 14:30N 37°49' W 122°23'3 6.5
2018-Jun-17 14:00N 37°48' W 122°19'1 1.8
2018-Jun-17 13:30N 37°48' W 122°18'2 3.1
2018-Jun-17 13:00N 37°48' W 122°20'0 0.4
2018-Jun-17 12:29N 37°48' W 122°19'0 0.0
2018-Jun-17 12:00N 37°48' W 122°19'0 0.0
2018-Jun-17 11:30N 37°48' W 122°19'0 0.4
2018-Jun-17 11:00N 37°48' W 122°20'2 4.7
2018-Jun-17 10:30N 37°46' W 122°20'2 3.1
2018-Jun-17 10:01N 37°47' W 122°22'5 9.1
2018-Jun-17 09:30N 37°51' W 122°25'5 9.5
2018-Jun-17 08:59N 37°55' W 122°27'4 8.2
2018-Jun-17 08:27N 37°60' W 122°25'5 9.2
2018-Jun-17 07:55N 38°03' W 122°21'4 8.0
2018-Jun-17 07:26N 38°04' W 122°16'0 0.2
2018-Jun-17 07:00N 38°03' W 122°16'2 2.6
2018-Jun-17 06:22N 38°04' W 122°13'5 1.1
2018-Jun-17 01:53N 38°02' W 122°08'3 1.3
2018-Jun-16 23:31N 38°03' W 122°11'211.1
2018-Jun-16 23:23N 38°04' W 122°13'411.6
2018-Jun-16 23:00N 38°03' W 122°19'611.3
2018-Jun-16 22:30N 38°00' W 122°25'611.4
2018-Jun-16 22:00N 37°55' W 122°27'4 8.8
2018-Jun-16 21:30N 37°51' W 122°26'5 9.2
2018-Jun-16 21:00N 37°49' W 122°31'2 3.7
2018-Jun-16 20:30N 37°49' W 122°29'1 3.0
2018-Jun-16 20:00N 37°50' W 122°28'3 6.9
2018-Jun-16 19:30N 37°53' W 122°26'4 8.7
2018-Jun-16 19:00N 37°58' W 122°26'4 8.9
2018-Jun-16 18:30N 38°01' W 122°23'4 7.8
2018-Jun-16 17:59N 38°03' W 122°18'5 9.1
2018-Jun-16 17:22N 38°03' W 122°11'2 0.4
2018-Jun-16 11:02N 38°02' W 122°08'0 0.1
2018-Jun-16 10:56N 38°02' W 122°08'0 0.0
2018-Jun-16 10:29N 38°02' W 122°08'2 3.3
2018-Jun-16 09:59N 38°03' W 122°10'4 3.2
2018-Jun-16 08:38N 38°03' W 122°16'0 0.0
2018-Jun-16 08:12N 38°03' W 122°16'0 0.9
2018-Jun-16 08:00N 38°04' W 122°16'2 2.8
2018-Jun-16 07:27N 38°03' W 122°18'5 8.3
2018-Jun-16 06:55N 38°03' W 122°12'3 0.3
2018-Jun-15 21:52N 38°02' W 122°08'3 5.7
2018-Jun-15 21:20N 38°03' W 122°12'4 9.3
2018-Jun-15 20:55N 38°04' W 122°17'3 6.2
2018-Jun-15 20:29N 38°04' W 122°13'5 0.5
2018-Jun-15 11:05N 38°02' W 122°08'0 0.1
2018-Jun-15 11:00N 38°02' W 122°08'0 0.2
2018-Jun-15 10:30N 38°02' W 122°08'0 0.2
2018-Jun-15 09:13N 38°02' W 122°08'0 0.0
2018-Jun-15 08:59N 38°02' W 122°08'2 2.7
2018-Jun-15 08:08N 38°03' W 122°10'210.2
2018-Jun-15 07:58N 38°04' W 122°12'5 9.7
2018-Jun-15 07:30N 38°03' W 122°18'5 8.0
2018-Jun-15 06:54N 38°01' W 122°24'511.1
2018-Jun-15 06:25N 37°56' W 122°27'410.1
2018-Jun-15 06:00N 37°52' W 122°25'4 8.9
2018-Jun-15 05:30N 37°48' W 122°23'4 8.0
2018-Jun-15 05:00N 37°45' W 122°21'1 2.3
2018-Jun-15 04:30N 37°44' W 122°20'1 1.4
2018-Jun-15 04:00N 37°44' W 122°21'5 9.6
2018-Jun-15 03:30N 37°48' W 122°24'0 0.0
2018-Jun-15 03:00N 37°48' W 122°24'0 0.0
2018-Jun-15 02:30N 37°48' W 122°24'0 0.0
2018-Jun-15 02:00N 37°48' W 122°24'0 0.0
2018-Jun-15 01:30N 37°48' W 122°24'0 0.0
2018-Jun-15 01:00N 37°48' W 122°24'0 0.0
2018-Jun-15 00:30N 37°48' W 122°24'0 0.0
2018-Jun-15 00:00N 37°48' W 122°24'0 0.0
2018-Jun-14 23:30N 37°48' W 122°24'0 0.0
2018-Jun-14 23:00N 37°48' W 122°24'0 0.0
2018-Jun-14 22:30N 37°48' W 122°24'0 0.0
2018-Jun-14 22:00N 37°48' W 122°24'0 0.0
2018-Jun-14 21:29N 37°48' W 122°24'0 0.0
2018-Jun-14 21:00N 37°48' W 122°24'0 0.0
2018-Jun-14 20:30N 37°48' W 122°24'0 0.0
2018-Jun-14 20:00N 37°48' W 122°24'0 0.0
2018-Jun-14 19:28N 37°48' W 122°24'0 0.0
2018-Jun-14 19:00N 37°48' W 122°24'0 0.0
2018-Jun-14 18:30N 37°48' W 122°24'0 0.0
2018-Jun-14 18:00N 37°48' W 122°24'0 0.0
2018-Jun-14 17:30N 37°48' W 122°24'0 0.0
2018-Jun-14 17:00N 37°48' W 122°24'0 0.0
2018-Jun-14 16:30N 37°48' W 122°24'0 0.0
2018-Jun-14 15:58N 37°48' W 122°24'0 0.0
2018-Jun-14 15:30N 37°48' W 122°24'0 0.0
2018-Jun-14 14:59N 37°48' W 122°24'0 0.0
2018-Jun-14 14:30N 37°48' W 122°24'0 0.0
2018-Jun-14 14:00N 37°48' W 122°24'0 0.0
2018-Jun-14 13:30N 37°48' W 122°24'3 5.3
2018-Jun-14 13:00N 37°48' W 122°21'0 0.0
2018-Jun-14 12:30N 37°48' W 122°21'0 0.0
2018-Jun-14 12:00N 37°48' W 122°21'0 0.0
2018-Jun-14 11:30N 37°48' W 122°21'0 0.0
2018-Jun-14 11:00N 37°48' W 122°21'0 0.0
2018-Jun-14 10:30N 37°48' W 122°21'0 0.0
2018-Jun-14 10:00N 37°48' W 122°21'0 0.0
2018-Jun-14 09:30N 37°48' W 122°21'1 2.5
2018-Jun-14 09:00N 37°48' W 122°19'3 4.9
2018-Jun-14 08:30N 37°48' W 122°22'1 2.7
2018-Jun-14 08:00N 37°48' W 122°24'0 0.0
2018-Jun-14 07:30N 37°48' W 122°24'0 0.0
2018-Jun-14 07:00N 37°48' W 122°24'0 0.0
2018-Jun-14 06:29N 37°48' W 122°24'0 0.0
2018-Jun-14 06:00N 37°48' W 122°24'0 0.0
2018-Jun-14 05:30N 37°48' W 122°24'0 0.0
2018-Jun-14 05:00N 37°48' W 122°24'0 0.0
2018-Jun-14 04:30N 37°48' W 122°24'0 0.0
2018-Jun-14 04:00N 37°48' W 122°24'0 0.0
2018-Jun-14 03:30N 37°48' W 122°24'0 0.0
2018-Jun-14 02:59N 37°48' W 122°24'0 0.0
2018-Jun-14 02:30N 37°48' W 122°24'0 0.0
2018-Jun-14 02:00N 37°48' W 122°24'0 0.0
2018-Jun-14 01:29N 37°48' W 122°24'0 0.0
2018-Jun-14 01:00N 37°48' W 122°24'0 0.0
2018-Jun-14 00:30N 37°48' W 122°24'0 0.0
2018-Jun-14 00:00N 37°48' W 122°24'0 0.0
2018-Jun-13 23:30N 37°48' W 122°24'0 0.0
2018-Jun-13 23:00N 37°48' W 122°24'4 8.0
2018-Jun-13 22:30N 37°52' W 122°25'3 6.2
2018-Jun-13 22:00N 37°55' W 122°25'2 4.7
2018-Jun-13 21:30N 37°55' W 122°22'0 0.0
2018-Jun-13 21:00N 37°55' W 122°22'0 0.0
2018-Jun-13 20:30N 37°55' W 122°22'0 0.0
2018-Jun-13 19:59N 37°55' W 122°22'0 0.0
2018-Jun-13 19:30N 37°55' W 122°22'0 0.3
2018-Jun-13 19:00N 37°55' W 122°22'3 5.9
2018-Jun-13 18:30N 37°53' W 122°25'5 9.9
2018-Jun-13 18:00N 37°48' W 122°22'4 8.1
2018-Jun-13 17:30N 37°44' W 122°21'1 1.7
2018-Jun-13 16:59N 37°44' W 122°21'4 8.7
2018-Jun-13 16:30N 37°48' W 122°22'510.1
2018-Jun-13 16:00N 37°49' W 122°28'2 3.7
2018-Jun-13 15:30N 37°48' W 122°30'0 0.1
2018-Jun-13 15:00N 37°48' W 122°30'2 4.3
2018-Jun-13 14:30N 37°50' W 122°28'4 8.6
2018-Jun-13 14:00N 37°53' W 122°26'710.4
2018-Jun-13 13:23N 37°60' W 122°25'411.4
2018-Jun-13 12:59N 38°03' W 122°20'612.0
2018-Jun-13 12:30N 38°04' W 122°13'4 7.2
2018-Jun-13 11:59N 38°02' W 122°08'0 0.0
2018-Jun-13 11:30N 38°02' W 122°08'0 0.0
2018-Jun-13 11:00N 38°02' W 122°08'0 0.0
2018-Jun-13 10:29N 38°02' W 122°08'0 0.0
2018-Jun-13 10:00N 38°02' W 122°08'0 0.0
2018-Jun-13 09:29N 38°02' W 122°08'1 1.1
2018-Jun-13 08:59N 38°02' W 122°08'0 0.0
2018-Jun-13 08:14N 38°02' W 122°08'0 0.0
2018-Jun-13 07:57N 38°02' W 122°08'0 0.2
2018-Jun-13 07:30N 38°02' W 122°08'2 4.1
2018-Jun-13 06:59N 38°03' W 122°10'510.0
2018-Jun-13 06:29N 38°04' W 122°17'2 5.0
2018-Jun-13 06:00N 38°04' W 122°14'4 8.3
2018-Jun-13 05:30N 38°02' W 122°09'1 1.1
2018-Jun-13 05:00N 38°02' W 122°08'0 0.0
2018-Jun-13 04:28N 38°02' W 122°08'0 0.4
2018-Jun-13 03:18N 38°02' W 122°08'0 0.4
2018-Jun-13 02:55N 38°02' W 122°08'0 0.1
2018-Jun-13 02:13N 38°02' W 122°08'0 0.0
2018-Jun-13 01:48N 38°02' W 122°08'4 0.4
2018-Jun-12 17:14N 38°03' W 122°12'210.0
2018-Jun-12 17:00N 38°04' W 122°15'610.0
2018-Jun-12 16:24N 38°02' W 122°22'410.8
2018-Jun-12 16:00N 37°59' W 122°26'510.4
2018-Jun-12 15:30N 37°54' W 122°26'5 9.5
2018-Jun-12 15:00N 37°49' W 122°23'4 8.7
2018-Jun-12 14:30N 37°45' W 122°20'2 4.1
2018-Jun-12 14:00N 37°47' W 122°22'2 3.7
2018-Jun-12 13:30N 37°48' W 122°24'0 0.0
2018-Jun-12 13:00N 37°48' W 122°24'0 0.0
2018-Jun-12 12:30N 37°48' W 122°24'0 0.0
2018-Jun-12 12:00N 37°48' W 122°24'0 0.0
2018-Jun-12 11:30N 37°48' W 122°24'0 0.0
2018-Jun-12 11:00N 37°48' W 122°24'0 0.0
2018-Jun-12 10:30N 37°48' W 122°24'0 0.0
2018-Jun-12 09:59N 37°48' W 122°24'0 0.0
2018-Jun-12 09:27N 37°48' W 122°24'0 0.0
2018-Jun-12 09:00N 37°48' W 122°24'0 0.0
2018-Jun-12 08:30N 37°48' W 122°24'0 0.0
2018-Jun-12 08:00N 37°48' W 122°24'0 0.0
2018-Jun-12 07:30N 37°48' W 122°24'0 0.0
2018-Jun-12 07:00N 37°48' W 122°24'0 0.0
2018-Jun-12 06:30N 37°48' W 122°24'0 0.0
2018-Jun-12 06:00N 37°48' W 122°24'0 0.0
2018-Jun-12 05:30N 37°48' W 122°24'0 0.0
2018-Jun-12 05:00N 37°48' W 122°24'0 0.0
2018-Jun-12 04:30N 37°48' W 122°24'0 0.0
2018-Jun-12 04:00N 37°48' W 122°24'0 0.0
2018-Jun-12 03:30N 37°48' W 122°24'0 0.0
2018-Jun-12 03:00N 37°48' W 122°24'0 0.0
2018-Jun-12 02:30N 37°48' W 122°24'0 0.0
2018-Jun-12 02:00N 37°48' W 122°24'0 0.0
2018-Jun-12 01:30N 37°48' W 122°24'0 0.0
2018-Jun-12 01:00N 37°48' W 122°24'0 0.0
2018-Jun-12 00:30N 37°48' W 122°24'0 0.0
2018-Jun-12 00:00N 37°48' W 122°24'3 6.2
2018-Jun-11 23:30N 37°46' W 122°21'1 1.8
2018-Jun-11 23:00N 37°47' W 122°21'5 9.2
2018-Jun-11 22:31N 37°51' W 122°25'610.7
2018-Jun-11 21:58N 37°56' W 122°27'511.2
2018-Jun-11 21:30N 38°01' W 122°24'5 9.8
2018-Jun-11 20:58N 38°03' W 122°18'8 0.7
2018-Jun-11 09:40N 38°02' W 122°08'0 0.0
2018-Jun-11 09:25N 38°02' W 122°08'0 0.1
2018-Jun-11 08:53N 38°02' W 122°08'1 2.1
2018-Jun-11 08:30N 38°02' W 122°09'1 0.2
2018-Jun-11 03:49N 38°02' W 122°08'0 0.6
2018-Jun-11 03:29N 38°02' W 122°08'0 0.2
2018-Jun-11 02:52N 38°02' W 122°08'2 1.6
2018-Jun-11 01:24N 38°03' W 122°11'4 9.2
2018-Jun-11 00:58N 38°04' W 122°16'6 9.5
2018-Jun-11 00:23N 38°02' W 122°22'410.0
2018-Jun-11 00:00N 37°59' W 122°26'510.1
2018-Jun-10 23:30N 37°54' W 122°25'510.6
2018-Jun-10 23:00N 37°49' W 122°23'611.4
2018-Jun-10 22:30N 37°44' W 122°20'0 0.7
2018-Jun-10 22:00N 37°43' W 122°19'5 9.6
2018-Jun-10 21:30N 37°48' W 122°22'5 9.7
2018-Jun-10 21:00N 37°52' W 122°25'611.4
2018-Jun-10 20:30N 37°57' W 122°27'611.2
2018-Jun-10 20:00N 38°02' W 122°22'510.2
2018-Jun-10 19:29N 38°04' W 122°16'2 1.2
2018-Jun-10 18:05N 38°05' W 122°15'111.4
2018-Jun-10 17:59N 38°04' W 122°15'3 0.2
2018-Jun-10 03:54N 38°03' W 122°11'410.8
2018-Jun-10 03:30N 38°04' W 122°16'0 0.6
2018-Jun-10 02:59N 38°03' W 122°16'0 0.1
2018-Jun-10 02:26N 38°03' W 122°16'2 4.8
2018-Jun-10 02:00N 38°04' W 122°13'3 1.4
2018-Jun-09 23:32N 38°02' W 122°09'3 1.9
2018-Jun-09 21:43N 38°04' W 122°13'4 8.1
2018-Jun-09 21:16N 38°03' W 122°18'4 9.4
2018-Jun-09 20:50N 38°02' W 122°22'4 9.1
2018-Jun-09 20:26N 37°59' W 122°25'4 8.5
2018-Jun-09 20:01N 37°56' W 122°27'4 8.8
2018-Jun-09 19:30N 37°51' W 122°25'4 8.1
2018-Jun-09 19:00N 37°49' W 122°29'2 3.0
2018-Jun-09 18:30N 37°49' W 122°31'0 0.9
2018-Jun-09 18:00N 37°49' W 122°30'4 8.6
2018-Jun-09 17:30N 37°49' W 122°25'1 2.1
2018-Jun-09 17:00N 37°48' W 122°24'0 0.0
2018-Jun-09 16:30N 37°48' W 122°24'0 0.0
2018-Jun-09 16:00N 37°48' W 122°24'0 0.0
2018-Jun-09 15:30N 37°48' W 122°24'0 0.0
2018-Jun-09 14:30N 37°48' W 122°24'0 0.0
2018-Jun-09 14:00N 37°48' W 122°24'1 3.0
2018-Jun-09 13:30N 37°48' W 122°22'2 3.3
2018-Jun-09 13:01N 37°49' W 122°20'0 0.2
2018-Jun-09 12:30N 37°49' W 122°20'3 5.2
2018-Jun-09 12:00N 37°48' W 122°23'  
Track history (hours):
 
Tides and Currents Weather Stations Pressure Air Temp Water Temp Dewpoint Dewpoint Depression Visibility Wind Speed Wind Dir Waves Ship Positions

Delta Cathryn

Owner: BAYDELTA MARITIME, SAN FRANCISCO, CA. More information available from US FCC via Universal Licensing System and Coast Guard Vessel Documentation Center.

Last reported at 2018-Jun-19 11:49 UTC. Time now 2018-Jun-19 12:39 UTC.
Position N 38°02' W 122°08'.

Length 30 m.

Type: Other ship. MMSI: 367419340.

Date/timePositionNaut miles runAvg speedWind from/ knotsBaromVisibWave heightAir tempDewpointWater temp
2018-Jun-19 11:49N 38°02' W 122°08'3 3.1
2018-Jun-19 10:53N 38°03' W 122°11'610.8
2018-Jun-19 10:22N 38°03' W 122°18'611.7
2018-Jun-19 09:50N 38°00' W 122°25'511.7
2018-Jun-19 09:27N 37°56' W 122°27'510.9
2018-Jun-19 09:00N 37°51' W 122°25'510.0
2018-Jun-19 08:28N 37°47' W 122°21'1 3.0
2018-Jun-19 08:00N 37°45' W 122°20'0 0.9
2018-Jun-19 07:30N 37°46' W 122°21'3 6.6
2018-Jun-19 07:00N 37°48' W 122°24'0 0.0
2018-Jun-19 06:30N 37°48' W 122°24'0 0.0
2018-Jun-19 06:00N 37°48' W 122°24'0 0.0
2018-Jun-19 05:30N 37°48' W 122°24'0 0.0
2018-Jun-19 05:00N 37°48' W 122°24'0 0.0
2018-Jun-19 04:30N 37°48' W 122°24'0 0.0
2018-Jun-19 04:00N 37°48' W 122°24'0 0.0
2018-Jun-19 03:30N 37°48' W 122°24'0 0.0
2018-Jun-19 03:00N 37°48' W 122°24'0 0.0
2018-Jun-19 02:30N 37°48' W 122°24'0 0.0
2018-Jun-19 01:59N 37°48' W 122°24'4 9.1
2018-Jun-19 01:31N 37°44' W 122°21'0 0.6
2018-Jun-19 01:00N 37°44' W 122°21'3 4.9
2018-Jun-19 00:30N 37°46' W 122°22'510.2
2018-Jun-19 00:00N 37°51' W 122°24'510.2
2018-Jun-18 23:30N 37°56' W 122°27'4 8.9
2018-Jun-18 22:59N 38°00' W 122°25'5 8.8
2018-Jun-18 22:23N 38°03' W 122°19'4 8.7
2018-Jun-18 21:53N 38°04' W 122°14'5 0.4
2018-Jun-18 09:02N 38°02' W 122°08'0 6.4
2018-Jun-18 08:59N 38°02' W 122°08'4 0.4
2018-Jun-17 21:48N 38°04' W 122°13'410.7
2018-Jun-17 21:26N 38°03' W 122°18'510.7
2018-Jun-17 20:58N 38°01' W 122°24'511.2
2018-Jun-17 20:30N 37°56' W 122°26'510.9
2018-Jun-17 20:00N 37°51' W 122°24'2 4.8
2018-Jun-17 19:30N 37°48' W 122°24'0 0.0
2018-Jun-17 19:00N 37°48' W 122°24'0 0.0
2018-Jun-17 18:30N 37°48' W 122°24'0 0.0
2018-Jun-17 18:00N 37°48' W 122°24'0 0.0
2018-Jun-17 17:30N 37°48' W 122°24'0 0.0
2018-Jun-17 17:00N 37°48' W 122°24'3 5.3
2018-Jun-17 16:30N 37°48' W 122°21'0 0.7
2018-Jun-17 16:00N 37°48' W 122°20'1 1.6
2018-Jun-17 15:30N 37°49' W 122°20'2 3.3
2018-Jun-17 15:00N 37°48' W 122°21'1 2.4
2018-Jun-17 14:30N 37°49' W 122°23'3 6.5
2018-Jun-17 14:00N 37°48' W 122°19'1 1.8
2018-Jun-17 13:30N 37°48' W 122°18'2 3.1
2018-Jun-17 13:00N 37°48' W 122°20'0 0.4
2018-Jun-17 12:29N 37°48' W 122°19'0 0.0
2018-Jun-17 12:00N 37°48' W 122°19'0 0.0
2018-Jun-17 11:30N 37°48' W 122°19'0 0.4
2018-Jun-17 11:00N 37°48' W 122°20'2 4.7
2018-Jun-17 10:30N 37°46' W 122°20'2 3.1
2018-Jun-17 10:01N 37°47' W 122°22'5 9.1
2018-Jun-17 09:30N 37°51' W 122°25'5 9.5
2018-Jun-17 08:59N 37°55' W 122°27'4 8.2
2018-Jun-17 08:27N 37°60' W 122°25'5 9.2
2018-Jun-17 07:55N 38°03' W 122°21'4 8.0
2018-Jun-17 07:26N 38°04' W 122°16'0 0.2
2018-Jun-17 07:00N 38°03' W 122°16'2 2.6
2018-Jun-17 06:22N 38°04' W 122°13'5 1.1
2018-Jun-17 01:53N 38°02' W 122°08'3 1.3
2018-Jun-16 23:31N 38°03' W 122°11'211.1
2018-Jun-16 23:23N 38°04' W 122°13'411.6
2018-Jun-16 23:00N 38°03' W 122°19'611.3
2018-Jun-16 22:30N 38°00' W 122°25'611.4
2018-Jun-16 22:00N 37°55' W 122°27'4 8.8
2018-Jun-16 21:30N 37°51' W 122°26'5 9.2
2018-Jun-16 21:00N 37°49' W 122°31'2 3.7
2018-Jun-16 20:30N 37°49' W 122°29'1 3.0
2018-Jun-16 20:00N 37°50' W 122°28'3 6.9
2018-Jun-16 19:30N 37°53' W 122°26'4 8.7
2018-Jun-16 19:00N 37°58' W 122°26'4 8.9
2018-Jun-16 18:30N 38°01' W 122°23'4 7.8
2018-Jun-16 17:59N 38°03' W 122°18'5 9.1
2018-Jun-16 17:22N 38°03' W 122°11'2 0.4
2018-Jun-16 11:02N 38°02' W 122°08'0 0.1
2018-Jun-16 10:56N 38°02' W 122°08'0 0.0
2018-Jun-16 10:29N 38°02' W 122°08'2 3.3
2018-Jun-16 09:59N 38°03' W 122°10'4 3.2
2018-Jun-16 08:38N 38°03' W 122°16'0 0.0
2018-Jun-16 08:12N 38°03' W 122°16'0 0.9
2018-Jun-16 08:00N 38°04' W 122°16'2 2.8
2018-Jun-16 07:27N 38°03' W 122°18'5 8.3
2018-Jun-16 06:55N 38°03' W 122°12'3 0.3
2018-Jun-15 21:52N 38°02' W 122°08'3 5.7
2018-Jun-15 21:20N 38°03' W 122°12'4 9.3
2018-Jun-15 20:55N 38°04' W 122°17'3 6.2
2018-Jun-15 20:29N 38°04' W 122°13'5 0.5
2018-Jun-15 11:05N 38°02' W 122°08'0 0.1
2018-Jun-15 11:00N 38°02' W 122°08'0 0.2
2018-Jun-15 10:30N 38°02' W 122°08'0 0.2
2018-Jun-15 09:13N 38°02' W 122°08'0 0.0
2018-Jun-15 08:59N 38°02' W 122°08'2 2.7
2018-Jun-15 08:08N 38°03' W 122°10'210.2
2018-Jun-15 07:58N 38°04' W 122°12'5 9.7
2018-Jun-15 07:30N 38°03' W 122°18'5 8.0
2018-Jun-15 06:54N 38°01' W 122°24'511.1
2018-Jun-15 06:25N 37°56' W 122°27'410.1
2018-Jun-15 06:00N 37°52' W 122°25'4 8.9
2018-Jun-15 05:30N 37°48' W 122°23'4 8.0
2018-Jun-15 05:00N 37°45' W 122°21'1 2.3
2018-Jun-15 04:30N 37°44' W 122°20'1 1.4
2018-Jun-15 04:00N 37°44' W 122°21'5 9.6
2018-Jun-15 03:30N 37°48' W 122°24'0 0.0
2018-Jun-15 03:00N 37°48' W 122°24'0 0.0
2018-Jun-15 02:30N 37°48' W 122°24'0 0.0
2018-Jun-15 02:00N 37°48' W 122°24'0 0.0
2018-Jun-15 01:30N 37°48' W 122°24'0 0.0
2018-Jun-15 01:00N 37°48' W 122°24'0 0.0
2018-Jun-15 00:30N 37°48' W 122°24'0 0.0
2018-Jun-15 00:00N 37°48' W 122°24'0 0.0
2018-Jun-14 23:30N 37°48' W 122°24'0 0.0
2018-Jun-14 23:00N 37°48' W 122°24'0 0.0
2018-Jun-14 22:30N 37°48' W 122°24'0 0.0
2018-Jun-14 22:00N 37°48' W 122°24'0 0.0
2018-Jun-14 21:29N 37°48' W 122°24'0 0.0
2018-Jun-14 21:00N 37°48' W 122°24'0 0.0
2018-Jun-14 20:30N 37°48' W 122°24'0 0.0
2018-Jun-14 20:00N 37°48' W 122°24'0 0.0
2018-Jun-14 19:28N 37°48' W 122°24'0 0.0
2018-Jun-14 19:00N 37°48' W 122°24'0 0.0
2018-Jun-14 18:30N 37°48' W 122°24'0 0.0
2018-Jun-14 18:00N 37°48' W 122°24'0 0.0
2018-Jun-14 17:30N 37°48' W 122°24'0 0.0
2018-Jun-14 17:00N 37°48' W 122°24'0 0.0
2018-Jun-14 16:30N 37°48' W 122°24'0 0.0
2018-Jun-14 15:58N 37°48' W 122°24'0 0.0
2018-Jun-14 15:30N 37°48' W 122°24'0 0.0
2018-Jun-14 14:59N 37°48' W 122°24'0 0.0
2018-Jun-14 14:30N 37°48' W 122°24'0 0.0
2018-Jun-14 14:00N 37°48' W 122°24'0 0.0
2018-Jun-14 13:30N 37°48' W 122°24'3 5.3
2018-Jun-14 13:00N 37°48' W 122°21'0 0.0
2018-Jun-14 12:30N 37°48' W 122°21'0 0.0
2018-Jun-14 12:00N 37°48' W 122°21'0 0.0
2018-Jun-14 11:30N 37°48' W 122°21'0 0.0
2018-Jun-14 11:00N 37°48' W 122°21'0 0.0
2018-Jun-14 10:30N 37°48' W 122°21'0 0.0
2018-Jun-14 10:00N 37°48' W 122°21'0 0.0
2018-Jun-14 09:30N 37°48' W 122°21'1 2.5
2018-Jun-14 09:00N 37°48' W 122°19'3 4.9
2018-Jun-14 08:30N 37°48' W 122°22'1 2.7
2018-Jun-14 08:00N 37°48' W 122°24'0 0.0
2018-Jun-14 07:30N 37°48' W 122°24'0 0.0
2018-Jun-14 07:00N 37°48' W 122°24'0 0.0
2018-Jun-14 06:29N 37°48' W 122°24'0 0.0
2018-Jun-14 06:00N 37°48' W 122°24'0 0.0
2018-Jun-14 05:30N 37°48' W 122°24'0 0.0
2018-Jun-14 05:00N 37°48' W 122°24'0 0.0
2018-Jun-14 04:30N 37°48' W 122°24'0 0.0
2018-Jun-14 04:00N 37°48' W 122°24'0 0.0
2018-Jun-14 03:30N 37°48' W 122°24'0 0.0
2018-Jun-14 02:59N 37°48' W 122°24'0 0.0
2018-Jun-14 02:30N 37°48' W 122°24'0 0.0
2018-Jun-14 02:00N 37°48' W 122°24'0 0.0
2018-Jun-14 01:29N 37°48' W 122°24'0 0.0
2018-Jun-14 01:00N 37°48' W 122°24'0 0.0
2018-Jun-14 00:30N 37°48' W 122°24'0 0.0
2018-Jun-14 00:00N 37°48' W 122°24'0 0.0
2018-Jun-13 23:30N 37°48' W 122°24'0 0.0
2018-Jun-13 23:00N 37°48' W 122°24'4 8.0
2018-Jun-13 22:30N 37°52' W 122°25'3 6.2
2018-Jun-13 22:00N 37°55' W 122°25'2 4.7
2018-Jun-13 21:30N 37°55' W 122°22'0 0.0
2018-Jun-13 21:00N 37°55' W 122°22'0 0.0
2018-Jun-13 20:30N 37°55' W 122°22'0 0.0
2018-Jun-13 19:59N 37°55' W 122°22'0 0.0
2018-Jun-13 19:30N 37°55' W 122°22'0 0.3
2018-Jun-13 19:00N 37°55' W 122°22'3 5.9
2018-Jun-13 18:30N 37°53' W 122°25'5 9.9
2018-Jun-13 18:00N 37°48' W 122°22'4 8.1
2018-Jun-13 17:30N 37°44' W 122°21'1 1.7
2018-Jun-13 16:59N 37°44' W 122°21'4 8.7
2018-Jun-13 16:30N 37°48' W 122°22'510.1
2018-Jun-13 16:00N 37°49' W 122°28'2 3.7
2018-Jun-13 15:30N 37°48' W 122°30'0 0.1
2018-Jun-13 15:00N 37°48' W 122°30'2 4.3
2018-Jun-13 14:30N 37°50' W 122°28'4 8.6
2018-Jun-13 14:00N 37°53' W 122°26'710.4
2018-Jun-13 13:23N 37°60' W 122°25'411.4
2018-Jun-13 12:59N 38°03' W 122°20'612.0
2018-Jun-13 12:30N 38°04' W 122°13'4 7.2
2018-Jun-13 11:59N 38°02' W 122°08'0 0.0
2018-Jun-13 11:30N 38°02' W 122°08'0 0.0
2018-Jun-13 11:00N 38°02' W 122°08'0 0.0
2018-Jun-13 10:29N 38°02' W 122°08'0 0.0
2018-Jun-13 10:00N 38°02' W 122°08'0 0.0
2018-Jun-13 09:29N 38°02' W 122°08'1 1.1
2018-Jun-13 08:59N 38°02' W 122°08'0 0.0
2018-Jun-13 08:14N 38°02' W 122°08'0 0.0
2018-Jun-13 07:57N 38°02' W 122°08'0 0.2
2018-Jun-13 07:30N 38°02' W 122°08'2 4.1
2018-Jun-13 06:59N 38°03' W 122°10'510.0
2018-Jun-13 06:29N 38°04' W 122°17'2 5.0
2018-Jun-13 06:00N 38°04' W 122°14'4 8.3
2018-Jun-13 05:30N 38°02' W 122°09'1 1.1
2018-Jun-13 05:00N 38°02' W 122°08'0 0.0
2018-Jun-13 04:28N 38°02' W 122°08'0 0.4
2018-Jun-13 03:18N 38°02' W 122°08'0 0.4
2018-Jun-13 02:55N 38°02' W 122°08'0 0.1
2018-Jun-13 02:13N 38°02' W 122°08'0 0.0
2018-Jun-13 01:48N 38°02' W 122°08'4 0.4
2018-Jun-12 17:14N 38°03' W 122°12'210.0
2018-Jun-12 17:00N 38°04' W 122°15'610.0
2018-Jun-12 16:24N 38°02' W 122°22'410.8
2018-Jun-12 16:00N 37°59' W 122°26'510.4
2018-Jun-12 15:30N 37°54' W 122°26'5 9.5
2018-Jun-12 15:00N 37°49' W 122°23'4 8.7
2018-Jun-12 14:30N 37°45' W 122°20'2 4.1
2018-Jun-12 14:00N 37°47' W 122°22'2 3.7
2018-Jun-12 13:30N 37°48' W 122°24'0 0.0
2018-Jun-12 13:00N 37°48' W 122°24'0 0.0
2018-Jun-12 12:30N 37°48' W 122°24'0 0.0
2018-Jun-12 12:00N 37°48' W 122°24'0 0.0
2018-Jun-12 11:30N 37°48' W 122°24'0 0.0
2018-Jun-12 11:00N 37°48' W 122°24'0 0.0
2018-Jun-12 10:30N 37°48' W 122°24'0 0.0
2018-Jun-12 09:59N 37°48' W 122°24'0 0.0
2018-Jun-12 09:27N 37°48' W 122°24'0 0.0
2018-Jun-12 09:00N 37°48' W 122°24'0 0.0
2018-Jun-12 08:30N 37°48' W 122°24'0 0.0
2018-Jun-12 08:00N 37°48' W 122°24'0 0.0
2018-Jun-12 07:30N 37°48' W 122°24'0 0.0
2018-Jun-12 07:00N 37°48' W 122°24'0 0.0
2018-Jun-12 06:30N 37°48' W 122°24'0 0.0
2018-Jun-12 06:00N 37°48' W 122°24'0 0.0
2018-Jun-12 05:30N 37°48' W 122°24'0 0.0
2018-Jun-12 05:00N 37°48' W 122°24'0 0.0
2018-Jun-12 04:30N 37°48' W 122°24'0 0.0
2018-Jun-12 04:00N 37°48' W 122°24'0 0.0
2018-Jun-12 03:30N 37°48' W 122°24'0 0.0
2018-Jun-12 03:00N 37°48' W 122°24'0 0.0
2018-Jun-12 02:30N 37°48' W 122°24'0 0.0
2018-Jun-12 02:00N 37°48' W 122°24'0 0.0
2018-Jun-12 01:30N 37°48' W 122°24'0 0.0
2018-Jun-12 01:00N 37°48' W 122°24'0 0.0
2018-Jun-12 00:30N 37°48' W 122°24'0 0.0
2018-Jun-12 00:00N 37°48' W 122°24'3 6.2
2018-Jun-11 23:30N 37°46' W 122°21'1 1.8
2018-Jun-11 23:00N 37°47' W 122°21'5 9.2
2018-Jun-11 22:31N 37°51' W 122°25'610.7
2018-Jun-11 21:58N 37°56' W 122°27'511.2
2018-Jun-11 21:30N 38°01' W 122°24'5 9.8
2018-Jun-11 20:58N 38°03' W 122°18'8 0.7
2018-Jun-11 09:40N 38°02' W 122°08'0 0.0
2018-Jun-11 09:25N 38°02' W 122°08'0 0.1
2018-Jun-11 08:53N 38°02' W 122°08'1 2.1
2018-Jun-11 08:30N 38°02' W 122°09'1 0.2
2018-Jun-11 03:49N 38°02' W 122°08'0 0.6
2018-Jun-11 03:29N 38°02' W 122°08'0 0.2
2018-Jun-11 02:52N 38°02' W 122°08'2 1.6
2018-Jun-11 01:24N 38°03' W 122°11'4 9.2
2018-Jun-11 00:58N 38°04' W 122°16'6 9.5
2018-Jun-11 00:23N 38°02' W 122°22'410.0
2018-Jun-11 00:00N 37°59' W 122°26'510.1
2018-Jun-10 23:30N 37°54' W 122°25'510.6
2018-Jun-10 23:00N 37°49' W 122°23'611.4
2018-Jun-10 22:30N 37°44' W 122°20'0 0.7
2018-Jun-10 22:00N 37°43' W 122°19'5 9.6
2018-Jun-10 21:30N 37°48' W 122°22'5 9.7
2018-Jun-10 21:00N 37°52' W 122°25'611.4
2018-Jun-10 20:30N 37°57' W 122°27'611.2
2018-Jun-10 20:00N 38°02' W 122°22'510.2
2018-Jun-10 19:29N 38°04' W 122°16'2 1.2
2018-Jun-10 18:05N 38°05' W 122°15'111.4
2018-Jun-10 17:59N 38°04' W 122°15'3 0.2
2018-Jun-10 03:54N 38°03' W 122°11'410.8
2018-Jun-10 03:30N 38°04' W 122°16'0 0.6
2018-Jun-10 02:59N 38°03' W 122°16'0 0.1
2018-Jun-10 02:26N 38°03' W 122°16'2 4.8
2018-Jun-10 02:00N 38°04' W 122°13'3 1.4
2018-Jun-09 23:32N 38°02' W 122°09'3 1.9
2018-Jun-09 21:43N 38°04' W 122°13'4 8.1
2018-Jun-09 21:16N 38°03' W 122°18'4 9.4
2018-Jun-09 20:50N 38°02' W 122°22'4 9.1
2018-Jun-09 20:26N 37°59' W 122°25'4 8.5
2018-Jun-09 20:01N 37°56' W 122°27'4 8.8
2018-Jun-09 19:30N 37°51' W 122°25'4 8.1
2018-Jun-09 19:00N 37°49' W 122°29'2 3.0
2018-Jun-09 18:30N 37°49' W 122°31'0 0.9
2018-Jun-09 18:00N 37°49' W 122°30'4 8.6
2018-Jun-09 17:30N 37°49' W 122°25'1 2.1
2018-Jun-09 17:00N 37°48' W 122°24'0 0.0
2018-Jun-09 16:30N 37°48' W 122°24'0 0.0
2018-Jun-09 16:00N 37°48' W 122°24'0 0.0
2018-Jun-09 15:30N 37°48' W 122°24'0 0.0
2018-Jun-09 14:30N 37°48' W 122°24'0 0.0
2018-Jun-09 14:00N 37°48' W 122°24'1 3.0
2018-Jun-09 13:30N 37°48' W 122°22'2 3.3
2018-Jun-09 13:01N 37°49' W 122°20'0 0.2
2018-Jun-09 12:30N 37°49' W 122°20'3 5.2
2018-Jun-09 12:00N 37°48' W 122°23'  

Dump ship's entire track history